Time;durP1;ratioP1;P1;durP2;ratioP2;P2;SDS_P1;SDS_P2;PMS_P1;PMS_P2;Temp;Humidity;BMP_temperature;BMP_pressure;BME280_temperature;BME280_humidity;BME280_pressure;Samples;Min_cycle;Max_cycle;Signal;HPM_P1;HPM_P2
2023/07/09 00:00:50;;;;;;;2.90;1.83;;;;;;;;;;7304936;19;140674;-75
2023/07/09 00:03:17;;;;;;;2.17;1.77;;;;;;;;;;7304924;19;140428;-75
2023/07/09 00:05:48;;;;;;;2.10;1.83;;;;;;;;;;7303976;19;142154;-76
2023/07/09 00:08:27;;;;;;;2.08;1.65;;;;;;;;;;7304482;19;141798;-77
2023/07/09 00:10:55;;;;;;;1.85;1.70;;;;;;;;;;7304540;19;140372;-76
2023/07/09 00:13:23;;;;;;;1.85;1.75;;;;;;;;;;7304391;19;140762;-76
2023/07/09 00:15:50;;;;;;;1.75;1.65;;;;;;;;;;7304416;19;140516;-76
2023/07/09 00:18:18;;;;;;;3.03;2.10;;;;;;;;;;7304583;19;140792;-76
2023/07/09 00:20:48;;;;;;;2.10;1.90;;;;;;;;;;7303096;19;141036;-75
2023/07/09 00:23:16;;;;;;;2.63;1.75;;;;;;;;;;7304300;19;140735;-75
2023/07/09 00:25:43;;;;;;;1.90;1.70;;;;;;;;;;7304698;19;142137;-76
2023/07/09 00:28:14;;;;;;;1.90;1.70;;;;;;;;;;7304736;19;141950;-76
2023/07/09 00:30:42;;;;;;;2.30;1.73;;;;;;;;;;7306053;19;140459;-76
2023/07/09 00:33:15;;;;;;;1.90;1.70;;;;;;;;;;7305136;19;140418;-76
2023/07/09 00:35:42;;;;;;;2.13;1.90;;;;;;;;;;7302922;19;141031;-75
2023/07/09 00:38:13;;;;;;;2.05;1.85;;;;;;;;;;7304132;19;141914;-76
2023/07/09 00:40:46;;;;;;;2.25;1.90;;;;;;;;;;7304663;19;140427;-75
2023/07/09 00:43:16;;;;;;;1.83;1.73;;;;;;;;;;7304111;19;140563;-76
2023/07/09 00:45:43;;;;;;;1.77;1.63;;;;;;;;;;7304749;19;140539;-76
2023/07/09 00:48:13;;;;;;;1.70;1.60;;;;;;;;;;7304630;19;141898;-76
2023/07/09 00:50:50;;;;;;;1.92;1.60;;;;;;;;;;7304506;19;140621;-76
2023/07/09 00:53:20;;;;;;;2.33;1.80;;;;;;;;;;7305017;19;140649;-76
2023/07/09 00:55:47;;;;;;;;;;;;;;;;;;7304905;19;141456;-77
2023/07/09 00:58:17;;;;;;;2.42;1.80;;;;;;;;;;7303426;19;151599;-77
2023/07/09 01:00:46;;;;;;;1.92;1.80;;;;;;;;;;7303804;19;140547;-75
2023/07/09 01:03:16;;;;;;;1.70;1.60;;;;;;;;;;7302743;19;140597;-75
2023/07/09 01:05:43;;;;;;;;;;;;;;;;;;7303424;19;141170;-76
2023/07/09 01:08:12;;;;;;;2.58;1.88;;;;;;;;;;7302059;19;151711;-75
2023/07/09 01:10:40;;;;;;;1.90;1.75;;;;;;;;;;7302840;19;141000;-75
2023/07/09 01:13:08;;;;;;;2.55;1.60;;;;;;;;;;7303313;19;140718;-77
2023/07/09 01:15:37;;;;;;;1.98;1.77;;;;;;;;;;7302454;19;141028;-75
2023/07/09 01:18:04;;;;;;;2.00;1.70;;;;;;;;;;7300930;19;142739;-74
2023/07/09 01:20:33;;;;;;;1.85;1.73;;;;;;;;;;7301535;19;140888;-73
2023/07/09 01:23:00;;;;;;;1.83;1.70;;;;;;;;;;7300294;19;140750;-74
2023/07/09 01:25:28;;;;;;;2.10;1.90;;;;;;;;;;7301778;19;140896;-75
2023/07/09 01:27:55;;;;;;;1.92;1.77;;;;;;;;;;7301888;19;142552;-75
2023/07/09 01:30:24;;;;;;;1.70;1.60;;;;;;;;;;7302588;19;140751;-74
2023/07/09 01:32:55;;;;;;;2.00;1.90;;;;;;;;;;7301097;19;140604;-76
2023/07/09 01:35:22;;;;;;;1.73;1.63;;;;;;;;;;7300956;19;141103;-75
2023/07/09 01:37:50;;;;;;;1.67;1.58;;;;;;;;;;7301655;19;142010;-75
2023/07/09 01:40:18;;;;;;;1.92;1.58;;;;;;;;;;7301914;19;140540;-76
2023/07/09 01:42:58;;;;;;;1.70;1.60;;;;;;;;;;7303818;19;140649;-78
2023/07/09 01:45:26;;;;;;;2.00;1.80;;;;;;;;;;7303777;19;140585;-79
2023/07/09 01:47:53;;;;;;;1.60;1.50;;;;;;;;;;7304565;19;140912;-77
2023/07/09 01:50:21;;;;;;;1.73;1.52;;;;;;;;;;7302986;19;140557;-77
2023/07/09 01:52:49;;;;;;;1.70;1.60;;;;;;;;;;7303486;19;141311;-77
2023/07/09 01:55:16;;;;;;;1.90;1.50;;;;;;;;;;7304441;19;140623;-77
2023/07/09 01:57:45;;;;;;;1.60;1.40;;;;;;;;;;7303406;19;142100;-77
2023/07/09 02:00:14;;;;;;;1.92;1.40;;;;;;;;;;7302507;19;140565;-77
2023/07/09 02:02:45;;;;;;;1.67;1.58;;;;;;;;;;7300900;19;140398;-77
2023/07/09 02:05:14;;;;;;;1.70;1.60;;;;;;;;;;7300710;19;141596;-78
2023/07/09 02:07:41;;;;;;;1.95;1.42;;;;;;;;;;7302441;19;142284;-78
2023/07/09 02:10:09;;;;;;;1.70;1.60;;;;;;;;;;7303915;19;140741;-78
2023/07/09 02:12:36;;;;;;;1.83;1.60;;;;;;;;;;7302375;19;140671;-78
2023/07/09 02:15:03;;;;;;;1.42;1.33;;;;;;;;;;7303139;19;142327;-78
2023/07/09 02:17:30;;;;;;;1.67;1.55;;;;;;;;;;7302946;19;141874;-77
2023/07/09 02:19:57;;;;;;;1.63;1.52;;;;;;;;;;7301920;19;140540;-77
2023/07/09 02:22:24;;;;;;;2.20;1.60;;;;;;;;;;7300088;19;140428;-77
2023/07/09 02:24:52;;;;;;;1.70;1.50;;;;;;;;;;7300476;19;141196;-77
2023/07/09 02:27:20;;;;;;;1.90;1.58;;;;;;;;;;7299258;19;142004;-77
2023/07/09 02:29:48;;;;;;;1.67;1.58;;;;;;;;;;7301097;19;140497;-77
2023/07/09 02:32:19;;;;;;;1.25;1.20;;;;;;;;;;7299697;19;142240;-78
2023/07/09 02:34:52;;;;;;;1.60;1.30;;;;;;;;;;7299420;19;141080;-77
2023/07/09 02:37:24;;;;;;;1.92;1.50;;;;;;;;;;7299737;19;142612;-75
2023/07/09 02:39:52;;;;;;;1.52;1.42;;;;;;;;;;7300100;19;140543;-75
2023/07/09 02:42:20;;;;;;;1.42;1.33;;;;;;;;;;7299757;19;140834;-76
2023/07/09 02:44:47;;;;;;;1.77;1.50;;;;;;;;;;7300330;19;141090;-76
2023/07/09 02:47:14;;;;;;;1.30;1.20;;;;;;;;;;7300980;19;141591;-76
2023/07/09 02:49:41;;;;;;;1.45;1.30;;;;;;;;;;7301224;19;140591;-75
2023/07/09 02:52:08;;;;;;;2.15;1.40;;;;;;;;;;7301365;19;140349;-76
2023/07/09 02:54:36;;;;;;;1.42;1.33;;;;;;;;;;7300464;19;141018;-74
2023/07/09 02:57:03;;;;;;;1.40;1.30;;;;;;;;;;7299728;19;140913;-75
2023/07/09 02:59:33;;;;;;;1.48;1.38;;;;;;;;;;7300101;19;140936;-77
2023/07/09 03:02:00;;;;;;;1.20;1.10;;;;;;;;;;7301488;19;140353;-73
2023/07/09 03:04:28;;;;;;;1.55;1.30;;;;;;;;;;7305702;19;141005;-73
2023/07/09 03:06:55;;;;;;;1.58;1.48;;;;;;;;;;7306539;19;142621;-73
2023/07/09 03:09:22;;;;;;;1.40;1.30;;;;;;;;;;7306890;19;140725;-74
2023/07/09 03:11:49;;;;;;;1.50;1.40;;;;;;;;;;7306678;19;140371;-74
2023/07/09 03:14:16;;;;;;;1.35;1.25;;;;;;;;;;7306639;19;141571;-74
2023/07/09 03:16:43;;;;;;;1.15;1.08;;;;;;;;;;7306201;19;142035;-77
2023/07/09 03:19:11;;;;;;;1.55;1.20;;;;;;;;;;7306321;19;140614;-75
2023/07/09 03:21:38;;;;;;;1.13;1.13;;;;;;;;;;7306288;19;140661;-76
2023/07/09 03:24:05;;;;;;;1.35;1.25;;;;;;;;;;7306184;19;140855;-79
2023/07/09 03:26:32;;;;;;;1.40;1.30;;;;;;;;;;7305952;19;141888;-75
2023/07/09 03:28:59;;;;;;;1.48;1.38;;;;;;;;;;7305877;19;140426;-75
2023/07/09 03:31:27;;;;;;;2.08;1.40;;;;;;;;;;7304817;19;140677;-75
2023/07/09 03:33:54;;;;;;;1.30;1.20;;;;;;;;;;7306025;19;141775;-74
2023/07/09 03:36:21;;;;;;;1.45;1.30;;;;;;;;;;7304683;19;141984;-75
2023/07/09 03:38:48;;;;;;;1.20;1.10;;;;;;;;;;7306479;19;140470;-76
2023/07/09 03:41:15;;;;;;;1.65;1.55;;;;;;;;;;7306391;19;140828;-76
2023/07/09 03:43:43;;;;;;;1.40;1.30;;;;;;;;;;7305771;19;141109;-76
2023/07/09 03:46:09;;;;;;;1.30;1.20;;;;;;;;;;7305284;19;142620;-76
2023/07/09 03:48:37;;;;;;;1.35;1.25;;;;;;;;;;7305433;19;140427;-76
2023/07/09 03:51:04;;;;;;;1.20;1.10;;;;;;;;;;7304861;19;140504;-76
2023/07/09 03:53:31;;;;;;;1.23;1.13;;;;;;;;;;7304377;19;141588;-77
2023/07/09 03:55:59;;;;;;;1.30;1.20;;;;;;;;;;7305369;19;142642;-76
2023/07/09 03:58:27;;;;;;;1.33;1.23;;;;;;;;;;7304572;19;140844;-75
2023/07/09 04:00:55;;;;;;;1.20;1.10;;;;;;;;;;7305189;19;140650;-76
2023/07/09 04:03:22;;;;;;;1.33;1.23;;;;;;;;;;7304822;19;141324;-75
2023/07/09 04:05:50;;;;;;;1.50;1.40;;;;;;;;;;7303294;19;142649;-75
2023/07/09 04:08:17;;;;;;;1.40;1.30;;;;;;;;;;7302705;19;140547;-77
2023/07/09 04:10:44;;;;;;;1.20;1.10;;;;;;;;;;7304771;19;140645;-78
2023/07/09 04:13:11;;;;;;;1.20;1.10;;;;;;;;;;7303313;19;141753;-77
2023/07/09 04:15:38;;;;;;;1.40;1.30;;;;;;;;;;7304352;19;142807;-77
2023/07/09 04:18:05;;;;;;;1.00;0.98;;;;;;;;;;7304824;19;140540;-77
2023/07/09 04:20:34;;;;;;;1.10;1.10;;;;;;;;;;7303387;19;140981;-76
2023/07/09 04:23:02;;;;;;;1.38;1.20;;;;;;;;;;7303863;19;142066;-76
2023/07/09 04:25:29;;;;;;;1.30;1.20;;;;;;;;;;7304434;19;142210;-76
2023/07/09 04:27:56;;;;;;;1.10;1.00;;;;;;;;;;7304587;19;140705;-76
2023/07/09 04:30:24;;;;;;;1.10;1.00;;;;;;;;;;7304318;19;140706;-76
2023/07/09 04:32:50;;;;;;;1.15;1.05;;;;;;;;;;7304210;19;140966;-76
2023/07/09 04:35:18;;;;;;;1.27;1.17;;;;;;;;;;7302499;19;142475;-75
2023/07/09 04:37:45;;;;;;;1.02;0.93;;;;;;;;;;7303797;19;140444;-76
2023/07/09 04:40:13;;;;;;;1.30;1.20;;;;;;;;;;7304501;19;141448;-76
2023/07/09 04:42:40;;;;;;;1.40;1.30;;;;;;;;;;7303441;19;141681;-75
2023/07/09 04:45:08;;;;;;;1.38;1.20;;;;;;;;;;7303915;19;140917;-75
2023/07/09 04:47:38;;;;;;;1.40;1.25;;;;;;;;;;7303646;19;140515;-75
2023/07/09 04:50:07;;;;;;;1.88;1.17;;;;;;;;;;7302613;19;140682;-76
2023/07/09 04:52:34;;;;;;;1.15;1.05;;;;;;;;;;7303217;19;141752;-75
2023/07/09 04:55:02;;;;;;;1.23;1.08;;;;;;;;;;7302738;19;142452;-76
2023/07/09 04:57:29;;;;;;;1.23;1.13;;;;;;;;;;7303767;19;140481;-77
2023/07/09 04:59:56;;;;;;;1.20;1.10;;;;;;;;;;7301416;19;140860;-79
2023/07/09 05:02:23;;;;;;;0.90;0.90;;;;;;;;;;7300943;19;141071;-77
2023/07/09 05:04:51;;;;;;;1.20;1.10;;;;;;;;;;7302377;19;142090;-76
2023/07/09 05:07:18;;;;;;;1.13;1.02;;;;;;;;;;7302705;19;140442;-76
2023/07/09 05:09:45;;;;;;;1.20;1.10;;;;;;;;;;7302369;19;140661;-76
2023/07/09 05:12:12;;;;;;;1.20;1.10;;;;;;;;;;7302708;19;141569;-75
2023/07/09 05:14:39;;;;;;;1.17;1.17;;;;;;;;;;7303309;19;141993;-75
2023/07/09 05:17:07;;;;;;;0.90;0.90;;;;;;;;;;7302474;19;140408;-74
2023/07/09 05:19:35;;;;;;;1.33;1.23;;;;;;;;;;7302697;19;140618;-75
2023/07/09 05:22:02;;;;;;;0.80;0.80;;;;;;;;;;7302052;19;141256;-75
2023/07/09 05:24:29;;;;;;;1.25;1.10;;;;;;;;;;7299791;19;141934;-77
2023/07/09 05:26:56;;;;;;;0.90;0.90;;;;;;;;;;7302684;19;140558;-77
2023/07/09 05:29:24;;;;;;;1.10;1.00;;;;;;;;;;7303096;19;140742;-76
2023/07/09 05:31:51;;;;;;;1.30;1.20;;;;;;;;;;7301132;19;140993;-77
2023/07/09 05:34:18;;;;;;;1.00;1.00;;;;;;;;;;7302826;19;142562;-77
2023/07/09 05:36:46;;;;;;;1.17;1.10;;;;;;;;;;7301697;19;140448;-81
2023/07/09 05:39:13;;;;;;;1.10;0.90;;;;;;;;;;7303264;19;140955;-80
2023/07/09 05:41:40;;;;;;;1.20;1.10;;;;;;;;;;7301678;19;140867;-80
2023/07/09 05:44:07;;;;;;;1.15;1.00;;;;;;;;;;7300960;19;142027;-79
2023/07/09 05:46:36;;;;;;;1.08;0.90;;;;;;;;;;7300942;19;140536;-83
2023/07/09 05:49:04;;;;;;;1.77;1.23;;;;;;;;;;7301060;19;140528;-83
2023/07/09 05:51:31;;;;;;;1.02;0.93;;;;;;;;;;7301325;19;140847;-84
2023/07/09 05:53:58;;;;;;;1.63;1.10;;;;;;;;;;7302540;19;140903;-83
2023/07/09 05:56:25;;;;;;;4.32;1.02;;;;;;;;;;7303114;19;140548;-75
2023/07/09 05:58:52;;;;;;;3.78;1.23;;;;;;;;;;7300704;19;140784;-75
2023/07/09 06:01:20;;;;;;;4.05;1.42;;;;;;;;;;7301421;19;141325;-75
2023/07/09 06:03:47;;;;;;;2.13;0.98;;;;;;;;;;7301133;19;142786;-74
2023/07/09 06:06:14;;;;;;;3.53;1.17;;;;;;;;;;7300213;19;140630;-74
2023/07/09 06:08:42;;;;;;;5.72;1.30;;;;;;;;;;7301441;19;140708;-80
2023/07/09 06:11:09;;;;;;;5.63;1.38;;;;;;;;;;7300110;19;141070;-74
2023/07/09 06:13:37;;;;;;;9.30;1.30;;;;;;;;;;7300800;19;142565;-73
2023/07/09 06:16:04;;;;;;;4.53;1.45;;;;;;;;;;7302704;19;140365;-78
2023/07/09 06:18:32;;;;;;;3.22;1.42;;;;;;;;;;7299348;19;140612;-78
2023/07/09 06:21:00;;;;;;;5.82;1.48;;;;;;;;;;7301399;19;141981;-79
2023/07/09 06:23:27;;;;;;;4.07;1.45;;;;;;;;;;7301726;19;142022;-77
2023/07/09 06:25:54;;;;;;;3.60;1.33;;;;;;;;;;7302566;19;140457;-78
2023/07/09 06:28:22;;;;;;;7.15;1.88;;;;;;;;;;7302184;19;140485;-80
2023/07/09 06:30:59;;;;;;;2.90;1.40;;;;;;;;;;7302984;19;141006;-78
2023/07/09 06:33:30;;;;;;;3.60;1.08;;;;;;;;;;7302024;19;143471;-79
2023/07/09 06:35:58;;;;;;;4.60;1.30;;;;;;;;;;7304430;19;140540;-79
2023/07/09 06:38:26;;;;;;;5.45;1.25;;;;;;;;;;7310632;19;140653;-85
2023/07/09 06:40:54;;;;;;;2.30;0.93;;;;;;;;;;7316833;19;142080;-85
2023/07/09 06:43:21;;;;;;;5.28;1.58;;;;;;;;;;7310349;19;141396;-80
2023/07/09 06:45:52;;;;;;;2.88;1.10;;;;;;;;;;7311350;19;140411;-84
2023/07/09 06:48:20;;;;;;;3.60;1.30;;;;;;;;;;7308117;19;140444;-84
2023/07/09 06:50:47;;;;;;;5.85;1.38;;;;;;;;;;7315526;19;141071;-85
2023/07/09 06:53:16;;;;;;;4.47;1.55;;;;;;;;;;7312660;19;140786;-77
2023/07/09 06:55:43;;;;;;;3.72;1.48;;;;;;;;;;7314527;19;140562;-92
2023/07/09 06:58:11;;;;;;;3.42;1.48;;;;;;;;;;7314063;19;140590;-89
2023/07/09 07:00:38;;;;;;;3.60;1.30;;;;;;;;;;7312302;19;141225;-90
2023/07/09 07:03:06;;;;;;;3.15;1.20;;;;;;;;;;7312839;19;141882;-77
2023/07/09 07:05:33;;;;;;;2.78;1.30;;;;;;;;;;7310731;19;140508;-85
2023/07/09 07:08:01;;;;;;;4.38;1.50;;;;;;;;;;7309356;19;140678;-82
2023/07/09 07:10:29;;;;;;;2.28;1.35;;;;;;;;;;7310387;19;140969;-81
2023/07/09 07:12:57;;;;;;;4.10;1.40;;;;;;;;;;7309677;19;140804;-80
2023/07/09 07:15:24;;;;;;;4.53;1.40;;;;;;;;;;7306919;19;140831;-80
2023/07/09 07:17:51;;;;;;;5.50;1.50;;;;;;;;;;7306397;19;140584;-78
2023/07/09 07:20:18;;;;;;;3.03;1.75;;;;;;;;;;7305997;19;140521;-80
2023/07/09 07:22:46;;;;;;;4.30;1.70;;;;;;;;;;7304138;19;142696;-85
2023/07/09 07:25:13;;;;;;;4.88;2.13;;;;;;;;;;7307376;19;140546;-81
2023/07/09 07:27:40;;;;;;;2.97;1.88;;;;;;;;;;7308754;19;140678;-82
2023/07/09 07:30:11;;;;;;;5.10;1.92;;;;;;;;;;7308827;19;140542;-78
2023/07/09 07:32:42;;;;;;;6.78;2.42;;;;;;;;;;7307847;19;143750;-78
2023/07/09 07:35:13;;;;;;;9.85;3.22;;;;;;;;;;7305961;19;140630;-83
2023/07/09 07:37:43;;;;;;;6.47;2.80;;;;;;;;;;7309171;19;140422;-83
2023/07/09 07:40:10;;;;;;;10.18;3.28;;;;;;;;;;7309398;19;140942;-85
2023/07/09 07:42:37;;;;;;;7.90;3.88;;;;;;;;;;7309453;19;141817;-85
2023/07/09 07:45:06;;;;;;;7.45;2.80;;;;;;;;;;7310691;19;140529;-84
2023/07/09 07:47:36;;;;;;;6.72;2.45;;;;;;;;;;7309256;19;140596;-88
2023/07/09 07:50:04;;;;;;;8.75;3.15;;;;;;;;;;7309005;19;140491;-83
2023/07/09 07:52:32;;;;;;;6.13;3.05;;;;;;;;;;7307893;19;141809;-79
2023/07/09 07:55:00;;;;;;;7.03;3.00;;;;;;;;;;7308371;19;140406;-81
2023/07/09 07:57:27;;;;;;;8.63;2.83;;;;;;;;;;7306242;19;140859;-79
2023/07/09 07:59:54;;;;;;;5.25;2.97;;;;;;;;;;7307066;19;140841;-80
2023/07/09 08:02:23;;;;;;;11.00;2.83;;;;;;;;;;7306840;19;140715;-79
2023/07/09 08:04:50;;;;;;;4.93;2.90;;;;;;;;;;7308412;19;140502;-80
2023/07/09 08:07:18;;;;;;;6.35;2.97;;;;;;;;;;7308008;19;140680;-79
2023/07/09 08:09:46;;;;;;;5.72;2.45;;;;;;;;;;7307252;19;141460;-83
2023/07/09 08:12:16;;;;;;;6.00;2.95;;;;;;;;;;7308428;19;142388;-82
2023/07/09 08:14:46;;;;;;;4.63;2.40;;;;;;;;;;7309117;19;140528;-81
2023/07/09 08:17:13;;;;;;;6.15;2.75;;;;;;;;;;7310434;19;140429;-79
2023/07/09 08:19:48;;;;;;;3.88;2.50;;;;;;;;;;7309150;19;141407;-81
2023/07/09 08:22:16;;;;;;;4.68;2.40;;;;;;;;;;7307727;19;142393;-82
2023/07/09 08:24:43;;;;;;;6.55;2.58;;;;;;;;;;7308690;19;140685;-81
2023/07/09 08:27:10;;;;;;;4.22;2.30;;;;;;;;;;7307781;19;140721;-82
2023/07/09 08:29:37;;;;;;;3.88;2.40;;;;;;;;;;7307234;19;141157;-83
2023/07/09 08:32:04;;;;;;;5.35;2.65;;;;;;;;;;7307797;19;142301;-84
2023/07/09 08:34:31;;;;;;;5.15;2.13;;;;;;;;;;7309116;19;140768;-80
2023/07/09 08:36:59;;;;;;;5.38;2.40;;;;;;;;;;7307701;19;140553;-78
2023/07/09 08:39:26;;;;;;;4.40;2.63;;;;;;;;;;7307611;19;141722;-77
2023/07/09 08:41:56;;;;;;;7.47;2.67;;;;;;;;;;7303946;19;142075;-81
2023/07/09 08:44:33;;;;;;;5.22;2.35;;;;;;;;;;7305723;19;140422;-78
2023/07/09 08:47:07;;;;;;;4.68;1.98;;;;;;;;;;7305073;19;140638;-81
2023/07/09 08:49:46;;;;;;;4.15;2.17;;;;;;;;;;7307125;19;140651;-79
2023/07/09 08:52:15;;;;;;;;;;;;;;;;;;7306722;19;142776;-79
2023/07/09 08:54:44;;;;;;;2.75;1.70;;;;;;;;;;7307937;19;140676;-77
2023/07/09 08:57:31;;;;;;;4.20;2.42;;;;;;;;;;7306254;19;140435;-80
2023/07/09 09:00:01;;;;;;;3.13;1.98;;;;;;;;;;7302773;19;140448;-82
2023/07/09 09:02:50;;;;;;;3.13;1.88;;;;;;;;;;7307255;19;143022;-83
2023/07/09 09:05:19;;;;;;;3.65;1.98;;;;;;;;;;7307123;19;140653;-77
2023/07/09 09:07:51;;;;;;;3.05;1.88;;;;;;;;;;7304886;19;140712;-77
2023/07/09 09:10:21;;;;;;;3.88;2.03;;;;;;;;;;7306423;19;142113;-80
2023/07/09 09:12:56;;;;;;;3.88;1.65;;;;;;;;;;7307390;19;141199;-82
2023/07/09 09:15:24;;;;;;;4.15;1.98;;;;;;;;;;7306457;19;140514;-76
2023/07/09 09:17:53;;;;;;;4.32;2.20;;;;;;;;;;7305935;19;140575;-79
2023/07/09 09:20:24;;;;;;;2.53;2.00;;;;;;;;;;7304471;19;141049;-81
2023/07/09 09:22:51;;;;;;;3.38;1.90;;;;;;;;;;7305068;19;141817;-81
2023/07/09 09:25:24;;;;;;;3.08;1.90;;;;;;;;;;7306075;19;140429;-82
2023/07/09 09:27:51;;;;;;;3.28;1.80;;;;;;;;;;7306316;19;140388;-79
2023/07/09 09:30:20;;;;;;;3.95;1.80;;;;;;;;;;7302319;19;142460;-82
2023/07/09 09:32:54;;;;;;;3.58;1.67;;;;;;;;;;7302501;19;141840;-81
2023/07/09 09:35:26;;;;;;;3.75;1.80;;;;;;;;;;7300806;19;140734;-82
2023/07/09 09:37:55;;;;;;;1.95;1.42;;;;;;;;;;7301356;19;140638;-82
2023/07/09 09:40:23;;;;;;;2.83;1.70;;;;;;;;;;7301436;19;141136;-82
2023/07/09 09:42:53;;;;;;;3.40;1.73;;;;;;;;;;7301513;19;141279;-81
2023/07/09 09:45:26;;;;;;;2.00;1.48;;;;;;;;;;7302618;19;141586;-86
2023/07/09 09:47:58;;;;;;;3.38;2.10;;;;;;;;;;7301645;19;140758;-83
2023/07/09 09:50:27;;;;;;;3.10;1.50;;;;;;;;;;7299079;19;140986;-78
2023/07/09 09:52:55;;;;;;;1.70;1.50;;;;;;;;;;7299944;19;140922;-78
2023/07/09 09:55:24;;;;;;;2.55;1.50;;;;;;;;;;7300287;19;141029;-83
2023/07/09 09:57:52;;;;;;;;;;;;;;;;;;7300226;19;140637;-79
2023/07/09 10:00:22;;;;;;;2.92;1.50;;;;;;;;;;7300298;19;140625;-77
2023/07/09 10:02:50;;;;;;;2.28;1.60;;;;;;;;;;7299609;19;141798;-77
2023/07/09 10:05:21;;;;;;;2.53;1.55;;;;;;;;;;7302043;19;141104;-80
2023/07/09 10:07:58;;;;;;;2.65;1.60;;;;;;;;;;7300313;19;140954;-82
2023/07/09 10:10:28;;;;;;;2.05;1.33;;;;;;;;;;7299057;19;140564;-79
2023/07/09 10:13:05;;;;;;;2.45;1.52;;;;;;;;;;7300572;19;140963;-86
2023/07/09 10:15:33;;;;;;;2.28;1.50;;;;;;;;;;7299735;19;140895;-82
2023/07/09 10:18:02;;;;;;;1.77;1.38;;;;;;;;;;7300289;19;141232;-83
2023/07/09 10:20:37;;;;;;;2.25;1.70;;;;;;;;;;7299283;19;140559;-79
2023/07/09 10:23:41;;;;;;;2.67;1.55;;;;;;;;;;7299542;19;140732;-79
2023/07/09 10:26:20;;;;;;;1.85;1.30;;;;;;;;;;7298270;19;140871;-77
2023/07/09 10:28:50;;;;;;;2.15;1.50;;;;;;;;;;7302467;19;140785;-79
2023/07/09 10:31:18;;;;;;;2.25;1.40;;;;;;;;;;7303420;19;141141;-78
2023/07/09 10:33:58;;;;;;;2.10;1.45;;;;;;;;;;7302303;19;141000;-82
2023/07/09 10:36:27;;;;;;;2.80;1.73;;;;;;;;;;7303343;19;140714;-78
2023/07/09 10:38:56;;;;;;;2.78;1.58;;;;;;;;;;7302070;19;141660;-79
2023/07/09 10:41:25;;;;;;;2.17;1.40;;;;;;;;;;7302169;19;140911;-77
2023/07/09 10:43:58;;;;;;;1.73;1.27;;;;;;;;;;7302746;19;142213;-77
2023/07/09 10:46:28;;;;;;;2.38;1.50;;;;;;;;;;7302313;19;140453;-78
2023/07/09 10:48:56;;;;;;;1.83;1.25;;;;;;;;;;7304073;19;140531;-77
2023/07/09 10:51:29;;;;;;;2.38;1.35;;;;;;;;;;7301484;19;142308;-77
2023/07/09 10:54:07;;;;;;;2.17;1.40;;;;;;;;;;7300784;19;143101;-77
2023/07/09 10:56:38;;;;;;;1.95;1.50;;;;;;;;;;7301528;19;140961;-78
2023/07/09 10:59:14;;;;;;;2.15;1.60;;;;;;;;;;7301792;19;140827;-81
2023/07/09 11:01:45;;;;;;;2.50;1.50;;;;;;;;;;7301864;19;141257;-81
2023/07/09 11:04:16;;;;;;;2.60;1.20;;;;;;;;;;7302304;19;140746;-84
2023/07/09 11:06:45;;;;;;;1.85;1.25;;;;;;;;;;7300689;19;140595;-78
2023/07/09 11:09:24;;;;;;;2.22;1.40;;;;;;;;;;7301440;19;140761;-78
2023/07/09 11:11:54;;;;;;;1.48;1.35;;;;;;;;;;7303712;19;141059;-78
2023/07/09 11:14:26;;;;;;;2.03;1.38;;;;;;;;;;7297063;19;144167;-79
2023/07/09 11:16:55;;;;;;;2.13;1.50;;;;;;;;;;7301330;19;140480;-81
2023/07/09 11:19:22;;;;;;;2.58;1.35;;;;;;;;;;7299288;19;140755;-80
2023/07/09 11:22:13;;;;;;;1.90;1.50;;;;;;;;;;7303892;19;141482;-82
2023/07/09 11:24:46;;;;;;;1.83;1.40;;;;;;;;;;7307587;19;141888;-79
2023/07/09 11:27:18;;;;;;;2.85;1.42;;;;;;;;;;7308980;19;140558;-84
2023/07/09 11:29:46;;;;;;;2.50;1.40;;;;;;;;;;7308870;19;140517;-79
2023/07/09 11:32:21;;;;;;;2.75;1.33;;;;;;;;;;7311219;19;140943;-80
2023/07/09 11:34:48;;;;;;;4.82;1.48;;;;;;;;;;7306196;19;141832;-77
2023/07/09 11:37:16;;;;;;;1.67;1.13;;;;;;;;;;7306307;19;140611;-76
2023/07/09 11:39:45;;;;;;;2.80;1.48;;;;;;;;;;7305593;19;140529;-77
2023/07/09 11:42:29;;;;;;;2.10;1.52;;;;;;;;;;7305700;19;140525;-76
2023/07/09 11:45:10;;;;;;;1.67;1.40;;;;;;;;;;7305661;19;142699;-76
2023/07/09 11:47:43;;;;;;;1.92;1.40;;;;;;;;;;7305662;19;140364;-75
2023/07/09 11:50:31;;;;;;;2.50;1.60;;;;;;;;;;7305434;19;140528;-77
2023/07/09 11:53:00;;;;;;;2.78;1.40;;;;;;;;;;7304502;19;141768;-76
2023/07/09 11:55:39;;;;;;;4.15;1.63;;;;;;;;;;7305305;19;142975;-78
2023/07/09 11:58:09;;;;;;;3.00;1.50;;;;;;;;;;7307267;19;140826;-81
2023/07/09 12:00:43;;;;;;;3.33;1.52;;;;;;;;;;7305792;19;140690;-78
2023/07/09 12:03:14;;;;;;;1.75;1.30;;;;;;;;;;7305255;19;141009;-79
2023/07/09 12:05:47;;;;;;;3.35;1.35;;;;;;;;;;7308767;19;142537;-82
2023/07/09 12:08:15;;;;;;;1.15;1.00;;;;;;;;;;7308540;19;140749;-91
2023/07/09 12:10:43;;;;;;;2.20;1.20;;;;;;;;;;7304507;19;140635;-78
2023/07/09 12:13:14;;;;;;;2.50;1.40;;;;;;;;;;7305632;19;140567;-78
2023/07/09 12:16:53;;;;;;;4.90;2.45;;;;;;;;;;7346040;19;141125;-84
2023/07/09 12:19:24;;;;;;;5.85;2.67;;;;;;;;;;7341767;19;140546;-82
2023/07/09 12:21:56;;;;;;;6.30;2.17;;;;;;;;;;7340943;19;141430;-87
2023/07/09 12:24:31;;;;;;;4.55;2.05;;;;;;;;;;7337612;19;142660;-84
2023/07/09 12:26:59;;;;;;;6.45;2.42;;;;;;;;;;7340382;19;141049;-81
2023/07/09 12:29:30;;;;;;;6.20;2.30;;;;;;;;;;7339447;19;140555;-82
2023/07/09 12:31:57;;;;;;;4.47;2.20;;;;;;;;;;7337533;19;141160;-89
2023/07/09 12:34:25;;;;;;;8.40;2.50;;;;;;;;;;7340174;19;143086;-81
2023/07/09 12:36:53;;;;;;;7.72;2.55;;;;;;;;;;7339588;19;140460;-88
2023/07/09 12:39:25;;;;;;;8.82;2.70;;;;;;;;;;7334827;19;140693;-81
2023/07/09 12:41:54;;;;;;;10.10;2.53;;;;;;;;;;7338036;19;141904;-82
2023/07/09 12:44:22;;;;;;;8.15;2.42;;;;;;;;;;7338774;19;142480;-88
2023/07/09 12:46:50;;;;;;;5.30;2.70;;;;;;;;;;7341026;19;140514;-85
2023/07/09 12:49:41;;;;;;;7.70;2.67;;;;;;;;;;7337418;19;140727;-86
2023/07/09 12:52:19;;;;;;;8.45;2.80;;;;;;;;;;7338227;19;141107;-85
2023/07/09 12:54:56;;;;;;;4.93;2.47;;;;;;;;;;7337201;19;141011;-89
2023/07/09 12:57:24;;;;;;;7.18;3.00;;;;;;;;;;7340194;19;140314;-83
2023/07/09 12:59:51;;;;;;;9.20;3.15;;;;;;;;;;7340589;19;140433;-90
2023/07/09 13:02:20;;;;;;;9.85;3.63;;;;;;;;;;7334559;19;140923;-81
2023/07/09 13:04:47;;;;;;;7.68;3.58;;;;;;;;;;7339292;19;140722;-81
2023/07/09 13:07:23;;;;;;;7.53;2.85;;;;;;;;;;7336129;19;140677;-81
2023/07/09 13:09:54;;;;;;;5.25;3.00;;;;;;;;;;7337111;19;140706;-81
2023/07/09 13:12:28;;;;;;;9.45;3.05;;;;;;;;;;7338615;19;141105;-80
2023/07/09 13:14:56;;;;;;;9.07;3.40;;;;;;;;;;7336219;19;142367;-79
2023/07/09 13:17:29;;;;;;;8.25;3.95;;;;;;;;;;7336015;19;140788;-79
2023/07/09 13:19:57;;;;;;;5.50;3.50;;;;;;;;;;7334203;19;140589;-78
2023/07/09 13:22:24;;;;;;;7.43;3.65;;;;;;;;;;7338508;19;141365;-77
2023/07/09 13:24:52;;;;;;;9.23;3.40;;;;;;;;;;7335472;19;142055;-78
2023/07/09 13:27:19;;;;;;;8.55;3.70;;;;;;;;;;7316596;19;140774;-78
2023/07/09 13:29:46;;;;;;;6.90;3.38;;;;;;;;;;7305653;19;140668;-78
2023/07/09 13:32:14;;;;;;;8.25;3.50;;;;;;;;;;7307728;19;141294;-78
2023/07/09 13:34:42;;;;;;;7.28;3.53;;;;;;;;;;7305174;19;141979;-77
2023/07/09 13:37:13;;;;;;;6.00;3.17;;;;;;;;;;7305421;19;140863;-77
2023/07/09 13:39:45;;;;;;;7.15;3.10;;;;;;;;;;7305057;19;140583;-77
2023/07/09 13:42:14;;;;;;;6.43;3.15;;;;;;;;;;7304301;19;140986;-78
2023/07/09 13:44:42;;;;;;;5.72;2.92;;;;;;;;;;7308246;19;142076;-78
2023/07/09 13:47:16;;;;;;;6.40;2.90;;;;;;;;;;7306146;19;140786;-77
2023/07/09 13:49:45;;;;;;;6.45;3.00;;;;;;;;;;7307268;19;140693;-77
2023/07/09 13:52:16;;;;;;;6.25;3.08;;;;;;;;;;7305318;19;141087;-77
2023/07/09 13:54:47;;;;;;;7.03;2.88;;;;;;;;;;7305200;19;141262;-79
2023/07/09 13:57:15;;;;;;;6.40;2.90;;;;;;;;;;7304306;19;140544;-75
2023/07/09 13:59:43;;;;;;;6.50;2.90;;;;;;;;;;7304405;19;140427;-76
2023/07/09 14:02:36;;;;;;;4.70;2.65;;;;;;;;;;7303661;19;141318;-75
2023/07/09 14:05:05;;;;;;;5.05;2.70;;;;;;;;;;7304457;19;141985;-76
2023/07/09 14:07:36;;;;;;;7.03;2.97;;;;;;;;;;7306280;19;140488;-77
2023/07/09 14:10:05;;;;;;;5.50;2.90;;;;;;;;;;7305583;19;141238;-80
2023/07/09 14:12:33;;;;;;;5.68;2.50;;;;;;;;;;7305458;19;140947;-80
2023/07/09 14:15:00;;;;;;;6.85;2.95;;;;;;;;;;7306117;19;141909;-79
2023/07/09 14:17:28;;;;;;;4.70;2.53;;;;;;;;;;7307421;19;140643;-80
2023/07/09 14:19:56;;;;;;;5.93;2.47;;;;;;;;;;7307164;19;140974;-81
2023/07/09 14:22:30;;;;;;;4.38;2.60;;;;;;;;;;7306461;19;141605;-77
2023/07/09 14:24:57;;;;;;;6.55;2.35;;;;;;;;;;7304979;19;142506;-78
2023/07/09 14:27:24;;;;;;;5.07;2.20;;;;;;;;;;7306773;19;140473;-79
2023/07/09 14:29:51;;;;;;;4.75;2.38;;;;;;;;;;7307484;19;140568;-81
2023/07/09 14:32:30;;;;;;;5.60;2.38;;;;;;;;;;7306221;19;141047;-80
2023/07/09 14:34:58;;;;;;;3.20;2.40;;;;;;;;;;7307306;19;142066;-80
2023/07/09 14:37:26;;;;;;;4.50;2.08;;;;;;;;;;7307505;19;140498;-79
2023/07/09 14:39:53;;;;;;;3.40;1.83;;;;;;;;;;7301654;19;140565;-76
2023/07/09 14:42:22;;;;;;;7.63;2.30;;;;;;;;;;7303066;19;140917;-77
2023/07/09 14:44:50;;;;;;;5.68;2.17;;;;;;;;;;7303883;19;141180;-76